South Passage — VHQ7804 — position and weather

sailwx.info

Track history (hours):
 
Tides and Currents Weather Stations Pressure Air Temp Water Temp Dewpoint Dewpoint Depression Visibility Wind Speed Wind Dir Waves Ship Positions

South Passage

Last reported at 2018-Apr-20 05:49 UTC. Time now 2018-Apr-24 01:08 UTC.
Position S 27°13' E 153°18'.

Length 30 m; draft 2.2 m.

Type: Sailing vessel. MMSI: 503318000.

Date/timePositionNaut miles runAvg speedWind from/ knotsBaromVisibWave heightAir tempDewpointWater temp
2018-Apr-20 05:49S 27°13' E 153°18'2 5.1
2018-Apr-20 05:30S 27°13' E 153°16'3 5.0
2018-Apr-20 04:59S 27°12' E 153°13'  
2018-Apr-16 07:34S 27°10' E 153°22'0 5.0
2018-Apr-16 07:29S 27°10' E 153°22'2 5.1
2018-Apr-16 07:00S 27°12' E 153°20'3 6.6
2018-Apr-16 06:30S 27°12' E 153°16'3 6.5
2018-Apr-16 05:59S 27°15' E 153°18'3 6.6
2018-Apr-16 05:30S 27°18' E 153°19'12 1.0
2018-Apr-15 17:28S 27°27' E 153°11'0 0.0
2018-Apr-15 16:58S 27°27' E 153°11'0 0.0
2018-Apr-15 16:28S 27°27' E 153°11'0 0.0
2018-Apr-15 14:31S 27°27' E 153°11'0 0.0
2018-Apr-15 14:28S 27°27' E 153°11'0 0.0
2018-Apr-15 13:46S 27°27' E 153°11'0 0.1
2018-Apr-15 13:22S 27°27' E 153°11'  
Track history (hours):
 
Tides and Currents Weather Stations Pressure Air Temp Water Temp Dewpoint Dewpoint Depression Visibility Wind Speed Wind Dir Waves Ship Positions

South Passage

Last reported at 2018-Apr-20 05:49 UTC. Time now 2018-Apr-24 01:08 UTC.
Position S 27°13' E 153°18'.

Length 30 m; draft 2.2 m.

Type: Sailing vessel. MMSI: 503318000.

Date/timePositionNaut miles runAvg speedWind from/ knotsBaromVisibWave heightAir tempDewpointWater temp
2018-Apr-20 05:49S 27°13' E 153°18'2 5.1
2018-Apr-20 05:30S 27°13' E 153°16'3 5.0
2018-Apr-20 04:59S 27°12' E 153°13'  
2018-Apr-16 07:34S 27°10' E 153°22'0 5.0
2018-Apr-16 07:29S 27°10' E 153°22'2 5.1
2018-Apr-16 07:00S 27°12' E 153°20'3 6.6
2018-Apr-16 06:30S 27°12' E 153°16'3 6.5
2018-Apr-16 05:59S 27°15' E 153°18'3 6.6
2018-Apr-16 05:30S 27°18' E 153°19'12 1.0
2018-Apr-15 17:28S 27°27' E 153°11'0 0.0
2018-Apr-15 16:58S 27°27' E 153°11'0 0.0
2018-Apr-15 16:28S 27°27' E 153°11'0 0.0
2018-Apr-15 14:31S 27°27' E 153°11'0 0.0
2018-Apr-15 14:28S 27°27' E 153°11'0 0.0
2018-Apr-15 13:46S 27°27' E 153°11'0 0.1
2018-Apr-15 13:22S 27°27' E 153°11'  

Dump ship's entire track history